createdAt,value
2023-05-24T00:00:45.449Z,66.80
2023-05-24T00:03:28.279Z,66.80
2023-05-24T00:06:12.704Z,66.90
2023-05-24T00:08:47.864Z,66.90
2023-05-24T00:11:19.980Z,67.00
2023-05-24T00:13:54.602Z,67.00
2023-05-24T00:16:28.596Z,67.00
2023-05-24T00:19:09.816Z,67.20
2023-05-24T00:21:42.764Z,67.30
2023-05-24T00:24:19.288Z,67.30
2023-05-24T00:26:49.971Z,67.50
2023-05-24T00:29:23.866Z,67.60
2023-05-24T00:31:54.968Z,67.60
2023-05-24T00:34:35.717Z,67.70
2023-05-24T00:37:07.276Z,67.70
2023-05-24T00:39:39.662Z,67.80
2023-05-24T00:42:17.519Z,67.80
2023-05-24T00:44:58.201Z,67.90
2023-05-24T00:47:30.010Z,68.00
2023-05-24T00:50:24.556Z,68.00
2023-05-24T00:52:56.451Z,68.00
2023-05-24T00:55:27.190Z,68.00
2023-05-24T00:58:00.110Z,68.00
2023-05-24T01:00:34.358Z,68.10
2023-05-24T01:03:14.239Z,68.10
2023-05-24T01:05:49.216Z,68.00
2023-05-24T01:09:13.298Z,68.00
2023-05-24T01:11:59.942Z,68.10
2023-05-24T01:14:42.903Z,68.10
2023-05-24T01:17:19.066Z,68.10
2023-05-24T01:20:04.718Z,68.10
2023-05-24T01:23:19.664Z,68.20
2023-05-24T01:26:27.341Z,68.20
2023-05-24T01:29:02.911Z,68.20
2023-05-24T01:31:35.304Z,68.20
2023-05-24T01:34:06.055Z,68.30
2023-05-24T01:36:39.743Z,68.30
2023-05-24T01:39:24.582Z,68.40
2023-05-24T01:42:18.063Z,68.50
2023-05-24T01:45:06.662Z,68.70
2023-05-24T01:47:57.024Z,68.80
2023-05-24T01:50:34.770Z,68.80
2023-05-24T01:53:10.304Z,68.80
2023-05-24T01:55:43.497Z,68.90
2023-05-24T01:58:19.385Z,68.90
2023-05-24T02:00:57.524Z,68.90
2023-05-24T02:03:36.962Z,68.90
2023-05-24T02:06:17.559Z,68.90
2023-05-24T02:08:47.071Z,69.00
2023-05-24T02:11:20.899Z,69.10
2023-05-24T02:13:54.514Z,69.20
2023-05-24T02:16:29.298Z,69.20
2023-05-24T02:19:04.997Z,69.40
2023-05-24T02:21:34.834Z,69.40
2023-05-24T02:24:10.524Z,69.50
2023-05-24T02:26:49.302Z,69.50
2023-05-24T02:29:24.837Z,69.50
2023-05-24T02:31:58.996Z,69.50
2023-05-24T02:34:33.558Z,69.60
2023-05-24T02:37:07.859Z,69.60
2023-05-24T02:39:41.777Z,69.60
2023-05-24T02:42:11.490Z,69.60
2023-05-24T02:44:43.476Z,69.70
2023-05-24T02:47:34.143Z,69.70
2023-05-24T02:50:02.898Z,69.70
2023-05-24T02:52:33.488Z,69.70
2023-05-24T02:55:09.132Z,69.80
2023-05-24T02:57:41.410Z,69.70
2023-05-24T03:00:26.305Z,69.80
2023-05-24T03:03:05.655Z,69.80
2023-05-24T03:05:34.151Z,69.80
2023-05-24T03:08:08.907Z,69.80
2023-05-24T03:10:42.724Z,69.80
2023-05-24T03:13:19.484Z,69.80
2023-05-24T03:16:00.803Z,69.80
2023-05-24T03:18:37.165Z,69.80
2023-05-24T03:21:14.610Z,69.80
2023-05-24T03:23:49.538Z,69.80
2023-05-24T03:26:22.814Z,69.70
2023-05-24T03:29:04.837Z,69.70
2023-05-24T03:31:42.181Z,69.60
2023-05-24T03:34:14.039Z,69.60
2023-05-24T03:36:48.931Z,69.50
2023-05-24T03:39:21.358Z,69.40
2023-05-24T03:42:07.582Z,69.40
2023-05-24T03:44:49.731Z,69.50
2023-05-24T03:47:23.891Z,69.50
2023-05-24T03:49:57.818Z,69.50
2023-05-24T03:52:28.785Z,69.40
2023-05-24T03:54:59.564Z,69.30
2023-05-24T03:57:34.987Z,69.30
2023-05-24T04:00:07.221Z,69.20
2023-05-24T04:03:09.354Z,69.10
2023-05-24T04:05:48.647Z,68.90
2023-05-24T04:08:23.718Z,68.80
2023-05-24T04:10:54.959Z,68.70
2023-05-24T04:13:26.702Z,68.70
2023-05-24T04:15:57.420Z,68.70
2023-05-24T04:18:25.993Z,68.60
2023-05-24T04:21:08.944Z,68.60
2023-05-24T04:23:43.450Z,68.50
2023-05-24T04:26:25.964Z,68.50
2023-05-24T04:29:02.548Z,68.40
2023-05-24T04:31:36.167Z,68.40
2023-05-24T04:34:12.039Z,68.30
2023-05-24T04:36:49.394Z,68.30
2023-05-24T04:39:27.229Z,68.10
2023-05-24T04:42:00.692Z,68.10
2023-05-24T04:44:33.685Z,68.10
2023-05-24T04:47:12.942Z,68.10
2023-05-24T04:49:46.768Z,68.10
2023-05-24T04:52:24.947Z,68.10
2023-05-24T04:54:58.225Z,67.90
2023-05-24T04:57:28.687Z,67.90
2023-05-24T05:00:01.274Z,67.80
2023-05-24T05:02:31.189Z,67.70
2023-05-24T05:05:08.875Z,67.80
2023-05-24T05:07:48.457Z,67.90
2023-05-24T05:10:23.906Z,67.90
2023-05-24T05:12:54.885Z,67.90
2023-05-24T05:15:29.106Z,67.90
2023-05-24T05:18:13.874Z,67.80
2023-05-24T05:20:51.345Z,67.70
2023-05-24T05:23:29.780Z,67.60
2023-05-24T05:26:01.694Z,67.30
2023-05-24T05:28:32.419Z,67.30
2023-05-24T05:31:09.308Z,67.50
2023-05-24T05:33:43.581Z,67.30
2023-05-24T05:36:19.878Z,67.30
2023-05-24T05:38:51.110Z,67.10
2023-05-24T05:41:22.754Z,67.10
2023-05-24T05:43:53.108Z,67.40
2023-05-24T05:46:30.724Z,67.50
2023-05-24T05:49:05.155Z,67.10
2023-05-24T05:51:38.612Z,67.30
2023-05-24T05:54:14.891Z,67.10
2023-05-24T05:56:50.652Z,67.30
2023-05-24T05:59:21.350Z,67.50
2023-05-24T06:01:52.706Z,68.10
2023-05-24T06:04:25.192Z,68.70
2023-05-24T06:07:02.900Z,67.70
2023-05-24T06:09:36.982Z,66.40
2023-05-24T06:12:08.025Z,65.50
2023-05-24T06:14:39.476Z,66.40
2023-05-24T06:17:11.138Z,64.70
2023-05-24T06:19:43.763Z,63.60
2023-05-24T06:22:21.088Z,63.10
2023-05-24T06:24:57.599Z,62.80
2023-05-24T06:27:28.158Z,63.30
2023-05-24T06:30:01.540Z,63.80
2023-05-24T06:32:32.421Z,64.10
2023-05-24T06:35:03.114Z,64.00
2023-05-24T06:37:36.787Z,64.10
2023-05-24T06:40:13.217Z,64.00
2023-05-24T06:42:44.311Z,64.10
2023-05-24T06:45:25.064Z,64.20
2023-05-24T06:48:05.178Z,64.30
2023-05-24T06:50:45.233Z,64.20
2023-05-24T06:53:19.521Z,64.30
2023-05-24T06:55:58.081Z,64.40
2023-05-24T06:58:30.163Z,64.60
2023-05-24T07:00:59.902Z,64.90
2023-05-24T07:03:40.986Z,65.00
2023-05-24T07:06:16.372Z,65.20
2023-05-24T07:08:49.992Z,65.30
2023-05-24T07:11:22.989Z,65.50
2023-05-24T07:14:00.766Z,65.40
2023-05-24T07:16:37.845Z,65.40
2023-05-24T07:19:16.050Z,65.50
2023-05-24T07:21:49.437Z,65.20
2023-05-24T07:24:24.385Z,65.40
2023-05-24T07:27:00.325Z,65.20
2023-05-24T07:29:39.905Z,65.20
2023-05-24T07:32:13.981Z,65.10
2023-05-24T07:34:54.054Z,64.80
2023-05-24T07:37:25.490Z,64.90
2023-05-24T07:39:59.900Z,64.90
2023-05-24T07:42:49.958Z,64.70
2023-05-24T07:45:29.189Z,64.40
2023-05-24T07:48:06.835Z,64.30
2023-05-24T07:50:38.829Z,64.30
2023-05-24T07:53:19.168Z,64.50
2023-05-24T07:56:01.349Z,64.50
2023-05-24T07:58:35.885Z,64.50
2023-05-24T08:01:22.138Z,64.40
2023-05-24T08:03:59.736Z,64.30
2023-05-24T08:06:33.082Z,64.00
2023-05-24T08:09:18.490Z,63.90
2023-05-24T08:11:50.153Z,63.80
2023-05-24T08:14:22.752Z,63.80
2023-05-24T08:16:53.818Z,63.80
2023-05-24T08:19:38.030Z,63.80
2023-05-24T08:22:19.516Z,63.60
2023-05-24T08:25:02.470Z,63.60
2023-05-24T08:27:37.203Z,63.70
2023-05-24T08:30:22.777Z,63.80
2023-05-24T08:33:00.836Z,63.50
2023-05-24T08:35:32.431Z,63.70
2023-05-24T08:38:06.205Z,63.70
2023-05-24T08:40:41.753Z,63.70
2023-05-24T08:43:14.992Z,63.20
2023-05-24T08:46:04.832Z,63.00
2023-05-24T08:48:47.870Z,63.10
2023-05-24T08:51:18.924Z,62.90
2023-05-24T08:53:59.025Z,63.10
2023-05-24T08:56:39.055Z,63.10
2023-05-24T08:59:13.982Z,62.90
2023-05-24T09:01:45.602Z,62.90
2023-05-24T09:04:18.778Z,62.70
2023-05-24T09:06:52.304Z,62.20
2023-05-24T09:09:28.407Z,62.20
2023-05-24T09:12:07.839Z,62.00
2023-05-24T09:14:38.413Z,62.10
2023-05-24T09:17:21.412Z,61.60
2023-05-24T09:19:54.307Z,61.20
2023-05-24T09:22:40.775Z,61.00
2023-05-24T09:25:12.009Z,60.80
2023-05-24T09:27:52.808Z,61.00
2023-05-24T09:30:25.999Z,60.90
2023-05-24T09:33:14.134Z,61.10
2023-05-24T09:35:48.812Z,61.20
2023-05-24T09:38:23.109Z,60.90
2023-05-24T09:41:09.320Z,61.00
2023-05-24T09:43:55.752Z,60.90
2023-05-24T09:46:29.122Z,60.60
2023-05-24T09:49:24.989Z,60.70
2023-05-24T09:51:58.422Z,60.40
2023-05-24T09:54:34.786Z,59.90
2023-05-24T09:57:09.935Z,59.60
2023-05-24T09:59:43.635Z,59.70
2023-05-24T10:02:14.533Z,59.30
2023-05-24T10:04:51.880Z,59.10
2023-05-24T10:07:34.775Z,59.10
2023-05-24T10:10:10.277Z,58.90
2023-05-24T10:12:46.456Z,58.70
2023-05-24T10:15:18.828Z,58.60
2023-05-24T10:17:58.153Z,58.20
2023-05-24T10:20:46.789Z,58.50
2023-05-24T10:26:35.375Z,57.80
2023-05-24T10:29:14.937Z,57.70
2023-05-24T10:31:47.906Z,57.30
2023-05-24T10:34:22.642Z,56.60
2023-05-24T10:37:02.569Z,56.90
2023-05-24T10:39:40.053Z,56.90
2023-05-24T10:42:31.312Z,56.90
2023-05-24T10:46:01.075Z,57.00
2023-05-24T10:48:42.215Z,56.70
2023-05-24T10:51:38.176Z,56.90
2023-05-24T10:57:25.883Z,56.40
2023-05-24T11:00:02.414Z,56.70
2023-05-24T11:02:43.993Z,56.50
2023-05-24T11:05:15.934Z,56.50
2023-05-24T11:07:59.654Z,56.40
2023-05-24T11:10:49.606Z,56.40
2023-05-24T11:13:26.970Z,56.20
2023-05-24T11:16:04.230Z,56.30
2023-05-24T11:18:41.488Z,56.20
2023-05-24T11:21:16.789Z,56.00
2023-05-24T11:23:49.916Z,55.90
2023-05-24T11:26:33.385Z,56.00
2023-05-24T11:29:07.235Z,55.80
2023-05-24T11:31:44.700Z,55.70
2023-05-24T11:34:18.312Z,55.70
2023-05-24T11:36:49.062Z,55.80
2023-05-24T11:39:23.566Z,55.60
2023-05-24T11:41:58.935Z,55.40
2023-05-24T11:44:32.261Z,55.10
2023-05-24T11:47:07.487Z,55.10
2023-05-24T11:49:47.492Z,55.10
2023-05-24T11:52:20.563Z,55.20
2023-05-24T11:54:57.479Z,55.30
2023-05-24T11:57:43.752Z,55.40
2023-05-24T12:00:20.290Z,55.60
2023-05-24T12:02:51.185Z,55.50
2023-05-24T12:05:25.740Z,55.50
2023-05-24T12:08:18.012Z,55.60
2023-05-24T12:10:57.572Z,55.60
2023-05-24T12:13:34.463Z,55.60
2023-05-24T12:16:08.217Z,55.70
2023-05-24T12:18:48.452Z,55.70
2023-05-24T12:21:30.290Z,55.60
2023-05-24T12:24:00.945Z,55.70
2023-05-24T12:26:33.189Z,55.80
2023-05-24T12:29:12.316Z,55.90
2023-05-24T12:31:45.982Z,56.00
2023-05-24T12:34:17.847Z,56.00
2023-05-24T12:36:55.469Z,55.80
2023-05-24T12:39:33.680Z,55.90
2023-05-24T12:42:09.548Z,56.00
2023-05-24T12:44:52.743Z,56.10
2023-05-24T12:47:24.175Z,56.10
2023-05-24T12:49:55.787Z,56.00
2023-05-24T12:52:36.686Z,56.10
2023-05-24T12:55:16.763Z,56.10
2023-05-24T12:57:55.930Z,56.00
2023-05-24T13:00:47.243Z,55.40
2023-05-24T13:03:21.739Z,55.40
2023-05-24T13:05:54.939Z,55.20
2023-05-24T13:08:30.911Z,55.10
2023-05-24T13:11:03.997Z,54.60
2023-05-24T13:13:47.522Z,54.50
2023-05-24T13:16:20.135Z,54.20
2023-05-24T13:18:48.917Z,54.10
2023-05-24T13:21:23.590Z,53.90
2023-05-24T13:23:58.386Z,53.40
2023-05-24T13:26:33.644Z,53.40
2023-05-24T13:31:53.089Z,53.40
2023-05-24T13:34:29.453Z,53.50
2023-05-24T13:37:03.354Z,53.50
2023-05-24T13:39:35.509Z,53.50
2023-05-24T13:42:14.927Z,53.40
2023-05-24T13:44:49.743Z,53.40
2023-05-24T13:47:39.308Z,53.40
2023-05-24T13:50:17.261Z,53.40
2023-05-24T13:52:56.250Z,53.40
2023-05-24T13:55:28.262Z,53.20
2023-05-24T13:58:02.161Z,53.40
2023-05-24T14:00:33.778Z,53.30
2023-05-24T14:03:08.632Z,53.30
2023-05-24T14:05:41.480Z,53.50
2023-05-24T14:08:15.722Z,53.20
2023-05-24T14:10:56.010Z,52.90
2023-05-24T14:14:32.882Z,53.00
2023-05-24T14:16:25.393Z,52.90
2023-05-24T14:19:02.251Z,53.00
2023-05-24T14:21:44.080Z,53.00
2023-05-24T14:24:17.873Z,53.10
2023-05-24T14:26:55.899Z,52.90
2023-05-24T14:29:38.184Z,52.90
2023-05-24T14:32:14.516Z,53.10
2023-05-24T14:34:53.405Z,53.20
2023-05-24T14:37:30.874Z,52.70
2023-05-24T14:40:01.314Z,52.40
2023-05-24T14:42:35.015Z,52.40
2023-05-24T14:45:16.730Z,52.10
2023-05-24T14:47:50.612Z,51.80
2023-05-24T14:50:28.338Z,51.80
2023-05-24T14:53:03.433Z,51.80
2023-05-24T14:55:38.424Z,51.80
2023-05-24T14:58:17.435Z,51.70
2023-05-24T15:00:54.947Z,51.80
2023-05-24T15:03:26.725Z,51.60
2023-05-24T15:06:02.620Z,51.30
2023-05-24T15:08:36.100Z,51.30
2023-05-24T15:11:14.898Z,51.40
2023-05-24T15:13:48.381Z,51.30
2023-05-24T15:16:22.369Z,51.40
2023-05-24T15:18:59.054Z,51.50
2023-05-24T15:21:47.600Z,51.50
2023-05-24T15:24:26.807Z,51.10
2023-05-24T15:27:01.799Z,51.20
2023-05-24T15:29:46.515Z,51.00
2023-05-24T15:32:23.439Z,50.90
2023-05-24T15:34:59.919Z,50.80
2023-05-24T15:37:34.653Z,50.90
2023-05-24T15:40:07.961Z,51.00
2023-05-24T15:42:53.322Z,51.10
2023-05-24T15:45:21.932Z,51.20
2023-05-24T15:48:01.964Z,51.40
2023-05-24T15:50:54.064Z,51.50
2023-05-24T15:53:31.705Z,51.50
2023-05-24T15:56:11.981Z,51.80
2023-05-24T15:58:46.070Z,52.00
2023-05-24T16:01:26.365Z,52.20
2023-05-24T16:04:00.634Z,52.30
2023-05-24T16:06:35.052Z,52.40
2023-05-24T16:09:12.652Z,52.70
2023-05-24T16:11:50.255Z,52.70
2023-05-24T16:14:24.735Z,52.90
2023-05-24T16:16:58.866Z,52.90
2023-05-24T16:19:32.282Z,53.00
2023-05-24T16:22:03.103Z,53.00
2023-05-24T16:24:38.707Z,53.00
2023-05-24T16:27:13.607Z,53.10
2023-05-24T16:29:45.519Z,53.10
2023-05-24T16:32:27.012Z,53.20
2023-05-24T16:34:59.196Z,53.30
2023-05-24T16:37:40.575Z,53.40
2023-05-24T16:40:18.115Z,53.50
2023-05-24T16:42:55.646Z,53.50
2023-05-24T16:45:36.228Z,53.60
2023-05-24T16:48:09.495Z,53.60
2023-05-24T16:50:45.112Z,53.70
2023-05-24T16:53:18.343Z,53.90
2023-05-24T16:56:03.192Z,54.10
2023-05-24T16:58:37.881Z,54.00
2023-05-24T17:01:13.555Z,54.10
2023-05-24T17:03:45.446Z,54.00
2023-05-24T17:06:17.536Z,54.00
2023-05-24T17:08:53.459Z,54.10
2023-05-24T17:11:25.775Z,54.10
2023-05-24T17:13:59.862Z,54.10
2023-05-24T17:16:39.318Z,54.10
2023-05-24T17:19:15.701Z,54.20
2023-05-24T17:21:59.384Z,54.20
2023-05-24T17:24:35.846Z,54.30
2023-05-24T17:27:13.947Z,54.30
2023-05-24T17:29:47.797Z,54.30
2023-05-24T17:32:26.166Z,54.20
2023-05-24T17:35:05.721Z,54.30
2023-05-24T17:37:38.463Z,54.30
2023-05-24T17:40:16.227Z,54.50
2023-05-24T17:42:56.010Z,54.50
2023-05-24T17:45:35.627Z,54.50
2023-05-24T17:48:07.075Z,54.50
2023-05-24T17:50:37.012Z,54.70
2023-05-24T17:53:29.951Z,54.70
2023-05-24T17:56:01.130Z,54.80
2023-05-24T17:58:41.298Z,55.00
2023-05-24T18:01:19.862Z,55.00
2023-05-24T18:03:59.426Z,55.10
2023-05-24T18:06:30.032Z,55.10
2023-05-24T18:08:58.999Z,55.10
2023-05-24T18:11:31.293Z,55.20
2023-05-24T18:14:04.634Z,55.20
2023-05-24T18:16:35.394Z,55.20
2023-05-24T18:19:07.441Z,55.20
2023-05-24T18:21:46.650Z,55.30
2023-05-24T18:24:22.746Z,55.30
2023-05-24T18:26:55.599Z,55.40
2023-05-24T18:29:34.739Z,55.50
2023-05-24T18:32:10.413Z,55.50
2023-05-24T18:34:38.716Z,55.50
2023-05-24T18:37:16.313Z,55.50
2023-05-24T18:39:50.049Z,55.60
2023-05-24T18:42:23.332Z,55.80
2023-05-24T18:44:58.251Z,56.00
2023-05-24T18:47:32.891Z,56.10
2023-05-24T18:50:03.519Z,56.10
2023-05-24T18:52:45.210Z,56.10
2023-05-24T18:55:18.305Z,56.30
2023-05-24T18:57:53.944Z,56.40
2023-05-24T19:00:29.876Z,56.40
2023-05-24T19:03:13.605Z,56.40
2023-05-24T19:05:47.409Z,56.50
2023-05-24T19:08:19.283Z,56.80
2023-05-24T19:10:51.231Z,56.90
2023-05-24T19:13:31.041Z,56.90
2023-05-24T19:16:03.084Z,56.90
2023-05-24T19:18:37.680Z,57.00
2023-05-24T19:21:18.316Z,57.00
2023-05-24T19:23:47.648Z,57.10
2023-05-24T19:26:23.361Z,57.20
2023-05-24T19:28:57.225Z,57.20
2023-05-24T19:31:32.094Z,57.20
2023-05-24T19:34:05.804Z,57.20
2023-05-24T19:36:43.983Z,57.20
2023-05-24T19:39:21.918Z,57.30
2023-05-24T19:41:56.128Z,57.40
2023-05-24T19:44:29.777Z,57.40
2023-05-24T19:47:04.133Z,57.50
2023-05-24T19:49:43.062Z,57.60
2023-05-24T19:52:17.182Z,57.60
2023-05-24T19:54:48.062Z,57.60
2023-05-24T19:57:22.328Z,57.70
2023-05-24T19:59:55.549Z,57.80
2023-05-24T20:02:28.227Z,57.80
2023-05-24T20:04:57.829Z,57.90
2023-05-24T20:07:31.986Z,58.00
2023-05-24T20:10:01.015Z,57.90
2023-05-24T20:12:36.406Z,58.00
2023-05-24T20:15:16.344Z,58.00
2023-05-24T20:17:54.133Z,58.00
2023-05-24T20:20:29.505Z,58.00
2023-05-24T20:23:05.768Z,58.20
2023-05-24T20:25:40.619Z,58.10
2023-05-24T20:28:29.396Z,58.10
2023-05-24T20:31:03.055Z,58.20
2023-05-24T20:33:44.769Z,58.20
2023-05-24T20:36:16.037Z,58.30
2023-05-24T20:38:48.602Z,58.20
2023-05-24T20:41:19.863Z,58.20
2023-05-24T20:43:52.834Z,58.20
2023-05-24T20:46:24.022Z,58.30
2023-05-24T20:48:55.508Z,58.40
2023-05-24T20:51:30.923Z,58.40
2023-05-24T20:54:11.293Z,58.40
2023-05-24T20:56:44.517Z,58.40
2023-05-24T20:59:14.420Z,58.40
2023-05-24T21:01:47.621Z,58.40
2023-05-24T21:04:20.563Z,58.40
2023-05-24T21:06:54.982Z,58.50
2023-05-24T21:09:32.116Z,58.60
2023-05-24T21:12:11.331Z,58.60
2023-05-24T21:14:43.206Z,58.50
2023-05-24T21:17:24.738Z,58.60
2023-05-24T21:20:04.625Z,58.70
2023-05-24T21:22:46.342Z,58.80
2023-05-24T21:25:24.554Z,58.90
2023-05-24T21:28:07.065Z,58.90
2023-05-24T21:30:58.608Z,59.00
2023-05-24T21:33:37.772Z,59.00
2023-05-24T21:36:22.184Z,59.00
2023-05-24T21:38:56.618Z,59.10
2023-05-24T21:41:32.129Z,59.20
2023-05-24T21:44:12.630Z,59.30
2023-05-24T21:46:47.572Z,59.40
2023-05-24T21:49:24.930Z,59.50
2023-05-24T21:52:35.244Z,59.50
2023-05-24T21:55:11.233Z,59.50
2023-05-24T21:57:51.416Z,59.60
2023-05-24T22:00:24.580Z,59.80
2023-05-24T22:02:52.887Z,59.90
2023-05-24T22:05:28.206Z,59.90
2023-05-24T22:08:06.170Z,60.00
2023-05-24T22:10:39.532Z,60.10
2023-05-24T22:13:20.313Z,60.30
2023-05-24T22:16:00.605Z,60.40
2023-05-24T22:18:33.876Z,60.50
2023-05-24T22:21:09.355Z,60.60
2023-05-24T22:23:43.686Z,60.70
2023-05-24T22:26:15.123Z,60.80
2023-05-24T22:29:12.056Z,60.80
2023-05-24T22:31:52.185Z,61.00
2023-05-24T22:34:32.602Z,61.00
2023-05-24T22:37:04.165Z,61.10
2023-05-24T22:39:44.365Z,61.30
2023-05-24T22:42:21.159Z,61.50
2023-05-24T22:44:52.944Z,61.60
2023-05-24T22:47:26.968Z,61.70
2023-05-24T22:49:58.159Z,61.80
2023-05-24T22:52:34.984Z,61.90
2023-05-24T22:55:17.182Z,61.90
2023-05-24T22:57:49.873Z,62.00
2023-05-24T23:00:29.621Z,62.10
2023-05-24T23:03:06.642Z,62.10
2023-05-24T23:05:45.383Z,62.20
2023-05-24T23:08:21.232Z,62.30
2023-05-24T23:10:53.104Z,62.40
2023-05-24T23:13:23.648Z,62.40
2023-05-24T23:16:04.983Z,62.50
2023-05-24T23:18:39.264Z,62.70
2023-05-24T23:21:16.848Z,62.80
2023-05-24T23:23:57.274Z,62.80
2023-05-24T23:26:31.267Z,62.90
2023-05-24T23:29:16.388Z,62.90
2023-05-24T23:31:49.691Z,63.00
2023-05-24T23:34:30.063Z,63.10
2023-05-24T23:37:06.665Z,63.10
2023-05-24T23:39:41.893Z,63.10
2023-05-24T23:42:25.075Z,63.20
2023-05-24T23:45:00.021Z,63.30
2023-05-24T23:47:29.319Z,63.30
2023-05-24T23:50:10.163Z,63.40
2023-05-24T23:52:43.928Z,63.50
2023-05-24T23:55:25.547Z,63.50
2023-05-24T23:58:03.141Z,63.60
